createdAt,value
2019-01-09T00:02:22.356Z,2.30
2019-01-09T00:04:51.652Z,2.30
2019-01-09T00:07:20.919Z,2.30
2019-01-09T00:09:50.098Z,2.30
2019-01-09T00:12:19.524Z,2.30
2019-01-09T00:14:49.009Z,2.20
2019-01-09T00:17:18.180Z,2.20
2019-01-09T00:19:47.389Z,2.30
2019-01-09T00:22:16.578Z,2.30
2019-01-09T00:24:46.064Z,2.40
2019-01-09T00:27:15.427Z,2.40
2019-01-09T00:29:44.613Z,2.40
2019-01-09T00:32:14.064Z,2.40
2019-01-09T00:34:43.569Z,2.50
2019-01-09T00:37:12.835Z,2.40
2019-01-09T00:39:43.185Z,2.40
2019-01-09T00:42:12.398Z,2.40
2019-01-09T00:44:42.753Z,2.40
2019-01-09T00:47:12.023Z,2.40
2019-01-09T00:49:41.251Z,2.40
2019-01-09T00:52:10.451Z,2.30
2019-01-09T00:54:39.719Z,2.30
2019-01-09T00:57:08.917Z,2.30
2019-01-09T00:59:38.165Z,2.20
2019-01-09T01:03:01.921Z,2.20
2019-01-09T01:05:54.539Z,2.20
2019-01-09T01:09:10.641Z,2.10
2019-01-09T01:12:01.935Z,2.10
2019-01-09T01:15:04.334Z,2.00
2019-01-09T01:18:08.441Z,2.10
2019-01-09T01:20:42.235Z,2.00
2019-01-09T01:23:55.019Z,2.00
2019-01-09T01:26:45.526Z,2.00
2019-01-09T01:29:42.051Z,2.00
2019-01-09T01:32:49.168Z,2.00
2019-01-09T01:35:45.587Z,2.00
2019-01-09T01:39:11.084Z,2.00
2019-01-09T01:42:06.875Z,2.10
2019-01-09T01:44:55.152Z,2.10
2019-01-09T01:47:46.920Z,2.00
2019-01-09T01:51:00.983Z,2.10
2019-01-09T01:53:51.323Z,2.10
2019-01-09T01:56:46.266Z,2.00
2019-01-09T01:59:36.047Z,2.00
2019-01-09T02:02:37.964Z,1.90
2019-01-09T02:05:46.751Z,1.90
2019-01-09T02:09:08.452Z,1.90
2019-01-09T02:12:13.880Z,1.80
2019-01-09T02:15:23.440Z,1.80
2019-01-09T02:18:17.416Z,1.90
2019-01-09T02:21:49.168Z,1.90
2019-01-09T02:24:47.051Z,1.90
2019-01-09T02:27:38.784Z,1.90
2019-01-09T02:30:33.157Z,1.90
2019-01-09T02:33:02.353Z,1.90
2019-01-09T02:35:31.524Z,1.90
2019-01-09T02:38:00.715Z,1.80
2019-01-09T02:40:29.895Z,1.80
2019-01-09T02:42:59.088Z,1.90
2019-01-09T02:45:28.250Z,1.90
2019-01-09T02:47:57.444Z,1.90
2019-01-09T02:50:26.615Z,1.90
2019-01-09T02:52:56.375Z,1.90
2019-01-09T02:55:25.640Z,1.90
2019-01-09T02:57:56.918Z,1.90
2019-01-09T03:00:25.740Z,1.90
2019-01-09T03:02:55.358Z,1.80
2019-01-09T03:05:24.826Z,1.90
2019-01-09T03:07:54.106Z,1.80
2019-01-09T03:10:23.273Z,1.80
2019-01-09T03:12:52.442Z,1.90
2019-01-09T03:15:21.685Z,1.80
2019-01-09T03:17:50.844Z,1.80
2019-01-09T03:20:20.105Z,1.90
2019-01-09T03:22:49.344Z,1.80
2019-01-09T03:25:18.618Z,1.80
2019-01-09T03:27:47.841Z,1.80
2019-01-09T03:30:17.343Z,1.80
2019-01-09T03:32:46.746Z,1.70
2019-01-09T03:35:15.984Z,1.70
2019-01-09T03:37:45.305Z,1.70
2019-01-09T03:40:14.486Z,1.70
2019-01-09T03:42:43.681Z,1.70
2019-01-09T03:45:12.840Z,1.70
2019-01-09T03:47:42.107Z,1.70
2019-01-09T03:50:11.281Z,1.70
2019-01-09T03:52:40.830Z,1.70
2019-01-09T03:55:12.749Z,1.70
2019-01-09T03:57:42.075Z,1.70
2019-01-09T04:00:11.247Z,1.80
2019-01-09T04:02:40.463Z,1.70
2019-01-09T04:05:09.913Z,1.70
2019-01-09T04:07:39.168Z,1.70
2019-01-09T04:10:08.702Z,1.70
2019-01-09T04:12:37.893Z,1.70
2019-01-09T04:15:07.689Z,1.70
2019-01-09T04:17:36.865Z,1.70
2019-01-09T04:20:06.702Z,1.70
2019-01-09T04:22:36.141Z,1.70
2019-01-09T04:25:05.303Z,1.70
2019-01-09T04:27:34.499Z,1.70
2019-01-09T04:30:03.775Z,1.60
2019-01-09T04:32:33.171Z,1.60
2019-01-09T04:35:02.441Z,1.70
2019-01-09T04:37:31.601Z,1.70
2019-01-09T04:40:00.791Z,1.70
2019-01-09T04:42:29.947Z,1.70
2019-01-09T04:44:59.207Z,1.70
2019-01-09T04:47:30.875Z,1.70
2019-01-09T04:50:00.047Z,1.80
2019-01-09T04:52:29.301Z,1.80
2019-01-09T04:54:59.039Z,1.70
2019-01-09T04:57:28.197Z,1.70
2019-01-09T04:59:57.380Z,1.70
2019-01-09T05:02:26.537Z,1.70
2019-01-09T05:04:55.927Z,1.70
2019-01-09T05:07:25.095Z,1.70
2019-01-09T05:09:54.690Z,1.70
2019-01-09T05:12:23.859Z,1.70
2019-01-09T05:14:53.042Z,1.70
2019-01-09T05:17:22.642Z,1.80
2019-01-09T05:19:55.335Z,1.80
2019-01-09T05:22:24.501Z,1.80
2019-01-09T05:24:53.694Z,1.80
2019-01-09T05:27:22.850Z,1.80
2019-01-09T05:30:11.115Z,1.80
2019-01-09T05:32:40.324Z,1.70
2019-01-09T05:35:09.583Z,1.70
2019-01-09T05:37:38.769Z,1.80
2019-01-09T05:40:08.323Z,1.70
2019-01-09T05:42:37.488Z,1.70
2019-01-09T05:45:06.688Z,1.80
2019-01-09T05:47:35.856Z,1.70
2019-01-09T05:50:05.533Z,1.70
2019-01-09T05:52:35.104Z,1.70
2019-01-09T05:55:04.300Z,1.70
2019-01-09T05:57:33.476Z,1.70
2019-01-09T06:00:02.843Z,1.70
2019-01-09T06:02:32.004Z,1.70
2019-01-09T06:05:01.196Z,1.70
2019-01-09T06:07:30.370Z,1.70
2019-01-09T06:09:59.544Z,1.70
2019-01-09T06:12:28.720Z,1.70
2019-01-09T06:14:58.319Z,1.70
2019-01-09T06:17:27.504Z,1.70
2019-01-09T06:19:56.693Z,1.70
2019-01-09T06:22:25.868Z,1.70
2019-01-09T06:24:55.268Z,1.70
2019-01-09T06:27:24.444Z,1.70
2019-01-09T06:29:53.666Z,1.70
2019-01-09T06:32:22.868Z,1.70
2019-01-09T06:34:52.047Z,1.70
2019-01-09T06:37:27.475Z,1.60
2019-01-09T06:39:52.204Z,1.60
2019-01-09T06:42:21.396Z,1.60
2019-01-09T06:44:50.576Z,1.50
2019-01-09T06:47:19.780Z,1.50
2019-01-09T06:49:49.048Z,1.50
2019-01-09T06:52:18.322Z,1.50
2019-01-09T06:54:47.524Z,1.30
2019-01-09T06:57:16.846Z,1.30
2019-01-09T06:59:46.025Z,1.30
2019-01-09T07:02:15.197Z,1.30
2019-01-09T07:04:44.814Z,1.20
2019-01-09T07:07:14.169Z,1.30
2019-01-09T07:09:43.432Z,1.30
2019-01-09T07:12:12.680Z,1.40
2019-01-09T07:14:41.887Z,1.30
2019-01-09T07:17:11.064Z,1.40
2019-01-09T07:19:40.336Z,1.40
2019-01-09T07:22:09.500Z,1.50
2019-01-09T07:24:38.693Z,1.50
2019-01-09T07:27:07.897Z,1.50
2019-01-09T07:29:37.061Z,1.50
2019-01-09T07:32:06.245Z,1.50
2019-01-09T07:34:35.417Z,1.40
2019-01-09T07:37:04.637Z,1.40
2019-01-09T07:39:33.819Z,1.40
2019-01-09T07:42:03.018Z,1.40
2019-01-09T07:44:32.281Z,1.40
2019-01-09T07:47:01.457Z,1.40
2019-01-09T07:49:30.680Z,1.50
2019-01-09T07:51:59.921Z,1.50
2019-01-09T07:54:29.145Z,1.50
2019-01-09T07:56:58.311Z,1.50
2019-01-09T07:59:27.597Z,1.50
2019-01-09T08:01:56.910Z,1.40
2019-01-09T08:04:26.167Z,1.50
2019-01-09T08:06:55.358Z,1.40
2019-01-09T08:09:24.541Z,1.40
2019-01-09T08:11:53.780Z,1.30
2019-01-09T08:14:22.953Z,1.30
2019-01-09T08:16:52.173Z,1.30
2019-01-09T08:19:21.347Z,1.30
2019-01-09T08:21:50.635Z,1.20
2019-01-09T08:24:19.797Z,1.30
2019-01-09T08:26:49.015Z,1.20
2019-01-09T08:29:18.348Z,1.30
2019-01-09T08:31:47.660Z,1.30
2019-01-09T08:34:16.875Z,1.20
2019-01-09T08:36:46.069Z,1.20
2019-01-09T08:39:15.369Z,1.20
2019-01-09T08:41:45.081Z,1.30
2019-01-09T08:44:14.259Z,1.30
2019-01-09T08:46:43.447Z,1.30
2019-01-09T08:49:12.804Z,1.30
2019-01-09T08:51:42.148Z,1.30
2019-01-09T08:54:11.362Z,1.40
2019-01-09T08:56:40.541Z,1.40
2019-01-09T08:59:09.803Z,1.40
2019-01-09T09:01:39.075Z,1.40
2019-01-09T09:04:08.253Z,1.50
2019-01-09T09:06:37.624Z,1.50
2019-01-09T09:09:08.353Z,1.50
2019-01-09T09:11:37.509Z,1.50
2019-01-09T09:14:08.057Z,1.60
2019-01-09T09:16:40.651Z,1.60
2019-01-09T09:19:09.816Z,1.60
2019-01-09T09:21:39.563Z,1.70
2019-01-09T09:24:08.752Z,1.70
2019-01-09T09:26:37.952Z,1.80
2019-01-09T09:29:07.136Z,1.90
2019-01-09T09:31:36.712Z,1.90
2019-01-09T09:34:06.284Z,1.90
2019-01-09T09:36:35.459Z,2.00
2019-01-09T09:39:08.079Z,2.10
2019-01-09T09:41:37.236Z,2.10
2019-01-09T09:44:06.436Z,2.00
2019-01-09T09:46:54.784Z,2.10
2019-01-09T09:49:24.128Z,2.00
2019-01-09T09:51:53.327Z,2.10
2019-01-09T09:54:23.456Z,2.00
2019-01-09T09:56:52.848Z,2.00
2019-01-09T09:59:23.550Z,1.90
2019-01-09T10:01:52.714Z,1.90
2019-01-09T10:04:21.908Z,2.00
2019-01-09T10:06:51.076Z,2.00
2019-01-09T10:09:20.344Z,2.00
2019-01-09T10:11:49.588Z,2.00
2019-01-09T10:14:18.804Z,2.00
2019-01-09T10:16:48.004Z,1.90
2019-01-09T10:19:17.233Z,1.90
2019-01-09T10:21:46.434Z,2.00
2019-01-09T10:24:15.612Z,1.90
2019-01-09T10:26:44.901Z,1.90
2019-01-09T10:29:14.101Z,1.90
2019-01-09T10:31:43.288Z,1.80
2019-01-09T10:34:12.478Z,1.80
2019-01-09T10:36:42.040Z,1.80
2019-01-09T10:39:11.202Z,1.80
2019-01-09T10:41:41.300Z,1.70
2019-01-09T10:44:18.655Z,1.70
2019-01-09T10:46:41.567Z,1.70
2019-01-09T10:49:10.768Z,1.60
2019-01-09T10:51:40.170Z,1.60
2019-01-09T10:54:10.783Z,1.60
2019-01-09T10:56:43.506Z,1.60
2019-01-09T10:59:12.662Z,1.50
2019-01-09T11:01:41.841Z,1.50
2019-01-09T11:04:11.005Z,1.40
2019-01-09T11:06:40.204Z,1.40
2019-01-09T11:09:09.400Z,1.40
2019-01-09T11:11:38.600Z,1.40
2019-01-09T11:14:09.426Z,1.50
2019-01-09T11:16:38.787Z,1.50
2019-01-09T11:19:07.981Z,1.60
2019-01-09T11:21:37.181Z,1.60
2019-01-09T11:24:06.438Z,1.60
2019-01-09T11:26:35.633Z,1.60
2019-01-09T11:29:04.805Z,1.60
2019-01-09T11:31:33.999Z,1.50
2019-01-09T11:34:03.175Z,1.60
2019-01-09T11:36:32.978Z,1.50
2019-01-09T11:39:02.143Z,1.50
2019-01-09T11:41:31.414Z,1.50
2019-01-09T11:44:00.584Z,1.50
2019-01-09T11:46:29.913Z,1.60
2019-01-09T11:48:59.105Z,1.60
2019-01-09T11:51:28.309Z,1.60
2019-01-09T11:53:57.482Z,1.60
2019-01-09T11:56:26.886Z,1.60
2019-01-09T11:58:56.216Z,1.60
2019-01-09T12:01:25.405Z,1.50
2019-01-09T12:03:54.713Z,1.60
2019-01-09T12:06:24.545Z,1.60
2019-01-09T12:08:53.786Z,1.50
2019-01-09T12:11:23.023Z,1.40
2019-01-09T12:13:53.304Z,1.40
2019-01-09T12:16:22.875Z,1.40
2019-01-09T12:18:52.075Z,1.40
2019-01-09T12:21:21.326Z,1.30
2019-01-09T12:23:51.119Z,1.30
2019-01-09T12:26:20.373Z,1.30
2019-01-09T12:28:53.637Z,1.30
2019-01-09T12:31:20.628Z,1.40
2019-01-09T12:33:49.806Z,1.30
2019-01-09T12:36:19.303Z,1.40
2019-01-09T12:38:50.683Z,1.40
2019-01-09T12:41:20.432Z,1.40
2019-01-09T12:43:49.630Z,1.30
2019-01-09T12:46:38.185Z,1.30
2019-01-09T12:49:07.426Z,1.30
2019-01-09T12:51:36.592Z,1.30
2019-01-09T12:54:05.788Z,1.20
2019-01-09T12:56:34.975Z,1.10
2019-01-09T12:59:04.152Z,1.10
2019-01-09T13:01:33.392Z,1.10
2019-01-09T13:04:02.607Z,1.00
2019-01-09T13:06:31.783Z,1.10
2019-01-09T13:09:11.482Z,1.00
2019-01-09T13:11:40.969Z,1.10
2019-01-09T13:14:10.148Z,1.10
2019-01-09T13:16:47.502Z,1.10
2019-01-09T13:19:10.316Z,1.10
2019-01-09T13:21:39.568Z,1.00
2019-01-09T13:24:09.228Z,1.00
2019-01-09T13:26:38.536Z,1.00
2019-01-09T13:29:08.548Z,1.00
2019-01-09T13:31:37.716Z,1.00
2019-01-09T13:34:06.992Z,1.00
2019-01-09T13:36:36.490Z,1.00
2019-01-09T13:39:08.927Z,0.90
2019-01-09T13:41:38.173Z,0.90
2019-01-09T13:44:07.444Z,0.90
2019-01-09T13:46:55.797Z,0.90
2019-01-09T13:49:25.076Z,0.80
2019-01-09T13:51:54.344Z,0.80
2019-01-09T13:54:23.610Z,0.80
2019-01-09T13:56:52.972Z,1.10
2019-01-09T13:59:22.172Z,1.00
2019-01-09T14:01:51.784Z,1.00
2019-01-09T14:04:21.052Z,0.80
2019-01-09T14:06:50.296Z,0.80
2019-01-09T14:09:19.488Z,0.80
2019-01-09T14:11:48.650Z,0.80
2019-01-09T14:14:18.020Z,0.80
2019-01-09T14:16:47.696Z,0.80
2019-01-09T14:19:16.964Z,0.90
2019-01-09T14:21:46.134Z,0.80
2019-01-09T14:24:15.327Z,0.80
2019-01-09T14:26:44.495Z,0.80
2019-01-09T14:29:13.668Z,0.80
2019-01-09T14:31:42.900Z,0.80
2019-01-09T14:34:12.572Z,0.80
2019-01-09T14:36:41.851Z,0.80
2019-01-09T14:39:11.060Z,0.80
2019-01-09T14:41:40.309Z,0.80
2019-01-09T14:44:09.489Z,0.80
2019-01-09T14:46:39.717Z,0.80
2019-01-09T14:49:09.294Z,0.80
2019-01-09T14:51:43.030Z,0.80
2019-01-09T14:54:09.393Z,0.90
2019-01-09T14:56:38.669Z,0.80
2019-01-09T14:59:07.828Z,0.80
2019-01-09T15:01:37.039Z,0.90
2019-01-09T15:04:06.488Z,0.90
2019-01-09T15:06:36.193Z,0.90
2019-01-09T15:09:08.554Z,0.80
2019-01-09T15:11:37.731Z,0.80
2019-01-09T15:14:07.425Z,0.80
2019-01-09T15:16:36.623Z,0.70
2019-01-09T15:19:06.005Z,0.70
2019-01-09T15:21:35.277Z,0.70
2019-01-09T15:24:08.638Z,0.70
2019-01-09T15:26:35.529Z,0.70
2019-01-09T15:29:04.727Z,0.70
2019-01-09T15:31:53.105Z,0.60
2019-01-09T15:34:22.665Z,0.60
2019-01-09T15:36:51.844Z,0.60
2019-01-09T15:39:21.196Z,0.60
2019-01-09T15:41:50.392Z,0.60
2019-01-09T15:44:20.130Z,0.60
2019-01-09T15:46:49.313Z,0.60
2019-01-09T15:49:18.503Z,0.50
2019-01-09T15:51:47.687Z,0.60
2019-01-09T15:54:17.318Z,0.50
2019-01-09T15:56:46.607Z,0.50
2019-01-09T15:59:15.830Z,0.50
2019-01-09T16:01:45.135Z,0.50
2019-01-09T16:04:14.417Z,0.50
2019-01-09T16:06:43.635Z,0.50
2019-01-09T16:09:12.899Z,0.50
2019-01-09T16:11:42.274Z,0.40
2019-01-09T16:14:11.534Z,0.50
2019-01-09T16:16:40.739Z,0.40
2019-01-09T16:19:10.142Z,0.40
2019-01-09T16:21:39.364Z,0.40
2019-01-09T16:24:14.451Z,0.40
2019-01-09T16:26:43.668Z,0.40
2019-01-09T16:29:33.886Z,0.50
2019-01-09T16:32:03.168Z,0.40
2019-01-09T16:34:32.476Z,0.50
2019-01-09T16:37:01.777Z,0.40
2019-01-09T16:39:31.345Z,0.50
2019-01-09T16:42:00.871Z,0.40
2019-01-09T16:44:32.332Z,0.40
2019-01-09T16:47:01.577Z,0.40
2019-01-09T16:49:34.666Z,0.50
2019-01-09T16:52:04.210Z,0.40
2019-01-09T16:54:33.545Z,0.40
2019-01-09T16:57:02.946Z,0.40
2019-01-09T16:59:32.513Z,0.40
2019-01-09T17:02:01.942Z,0.40
2019-01-09T17:04:31.640Z,0.40
2019-01-09T17:07:01.040Z,0.40
2019-01-09T17:09:30.402Z,0.40
2019-01-09T17:11:59.728Z,0.30
2019-01-09T17:14:29.346Z,0.30
2019-01-09T17:16:58.763Z,0.30
2019-01-09T17:19:28.156Z,0.40
2019-01-09T17:21:58.342Z,0.30
2019-01-09T17:24:27.732Z,0.30
2019-01-09T17:26:57.173Z,0.30
2019-01-09T17:29:30.888Z,0.30
2019-01-09T17:32:00.448Z,0.30
2019-01-09T17:34:30.230Z,0.30
2019-01-09T17:37:09.347Z,0.30
2019-01-09T17:39:39.384Z,0.20
2019-01-09T17:42:09.396Z,0.20
2019-01-09T17:44:38.744Z,0.20
2019-01-09T17:47:08.156Z,0.20
2019-01-09T17:49:38.515Z,0.20
2019-01-09T17:52:07.927Z,0.20
2019-01-09T17:54:56.294Z,0.10
2019-01-09T17:57:26.425Z,0.10
2019-01-09T17:59:55.826Z,0.10
2019-01-09T18:02:25.538Z,0.10
2019-01-09T18:04:55.167Z,0.10
2019-01-09T18:07:25.208Z,0.10
2019-01-09T18:09:54.523Z,0.10
2019-01-09T18:12:25.729Z,0.10
2019-01-09T18:14:55.105Z,0.10
2019-01-09T18:17:24.619Z,0.10
2019-01-09T18:19:54.341Z,0.10
2019-01-09T18:22:24.019Z,0.10
2019-01-09T18:24:53.833Z,0.10
2019-01-09T18:27:23.196Z,0.10
2019-01-09T18:29:53.140Z,0.10
2019-01-09T18:32:38.100Z,0.10
2019-01-09T18:36:04.214Z,0.10
2019-01-09T18:39:09.739Z,0.10
2019-01-09T18:41:57.524Z,0.10
2019-01-09T18:45:05.995Z,0.10
2019-01-09T18:48:46.771Z,0.10
2019-01-09T18:52:04.971Z,0.10
2019-01-09T18:54:34.305Z,0.10
2019-01-09T18:57:04.848Z,0.10
2019-01-09T18:59:34.275Z,0.10
2019-01-09T19:02:04.934Z,0.10
2019-01-09T19:04:34.562Z,0.10
2019-01-09T19:07:06.428Z,0.10
2019-01-09T19:09:35.930Z,0.10
2019-01-09T19:12:06.997Z,0.00
2019-01-09T19:14:36.373Z,0.00
2019-01-09T19:17:07.049Z,0.00
2019-01-09T19:19:36.825Z,0.10
2019-01-09T19:22:06.223Z,0.00
2019-01-09T19:24:35.909Z,0.00
2019-01-09T19:27:06.458Z,0.10
2019-01-09T19:29:36.144Z,0.10
2019-01-09T19:32:08.313Z,0.10
2019-01-09T19:34:37.678Z,0.10
2019-01-09T19:37:07.478Z,0.00
2019-01-09T19:39:36.834Z,0.10
2019-01-09T19:42:08.470Z,0.10
2019-01-09T19:44:39.410Z,0.10
2019-01-09T19:47:08.891Z,0.00
2019-01-09T19:49:38.324Z,0.10
2019-01-09T19:52:26.740Z,0.10
2019-01-09T19:54:57.416Z,0.10
2019-01-09T19:57:31.034Z,0.10
2019-01-09T20:00:00.378Z,0.10
2019-01-09T20:02:48.877Z,0.10
2019-01-09T20:05:20.786Z,0.10
2019-01-09T20:08:10.282Z,0.10
2019-01-09T20:10:40.265Z,0.10
2019-01-09T20:13:09.633Z,0.10
2019-01-09T20:15:39.286Z,0.10
2019-01-09T20:18:09.544Z,0.00
2019-01-09T20:20:40.168Z,0.00
2019-01-09T20:23:09.689Z,0.00
2019-01-09T20:25:42.515Z,0.00
2019-01-09T20:28:13.285Z,0.00
2019-01-09T20:30:43.183Z,0.00
2019-01-09T20:33:14.301Z,0.00
2019-01-09T20:35:47.246Z,0.00
2019-01-09T20:38:16.860Z,0.00
2019-01-09T20:40:52.461Z,0.00
2019-01-09T20:43:23.326Z,0.00
2019-01-09T20:45:53.090Z,0.00
2019-01-09T20:48:24.531Z,0.00
2019-01-09T20:50:53.891Z,0.00
2019-01-09T20:53:23.368Z,0.00
2019-01-09T20:55:53.431Z,0.00
2019-01-09T20:58:25.416Z,0.00
2019-01-09T21:00:57.138Z,0.00
2019-01-09T21:03:49.722Z,0.00
2019-01-09T21:06:19.362Z,0.00
2019-01-09T21:08:48.746Z,0.00
2019-01-09T21:11:18.845Z,0.00
2019-01-09T21:13:48.547Z,0.00
2019-01-09T21:16:18.915Z,0.00
2019-01-09T21:18:48.762Z,0.00
2019-01-09T21:21:19.226Z,0.00
2019-01-09T21:23:48.561Z,0.00
2019-01-09T21:26:18.271Z,0.10
2019-01-09T21:28:49.263Z,0.00
2019-01-09T21:31:38.071Z,0.10
2019-01-09T21:34:07.850Z,0.00
2019-01-09T21:36:37.287Z,0.10
2019-01-09T21:39:12.044Z,0.00
2019-01-09T21:41:41.443Z,0.00
2019-01-09T21:44:15.826Z,0.00
2019-01-09T21:46:46.397Z,0.00
2019-01-09T21:49:16.950Z,0.00
2019-01-09T21:51:46.794Z,0.00
2019-01-09T21:54:16.443Z,0.00
2019-01-09T21:56:45.895Z,0.00
2019-01-09T21:59:15.286Z,0.00
2019-01-09T22:01:45.063Z,0.00
2019-01-09T22:04:14.981Z,0.00
2019-01-09T22:06:44.307Z,0.00
2019-01-09T22:09:13.730Z,0.00
2019-01-09T22:11:43.549Z,0.10
2019-01-09T22:14:13.457Z,0.00
2019-01-09T22:16:42.893Z,0.00
2019-01-09T22:19:12.415Z,0.10
2019-01-09T22:21:41.927Z,0.00
2019-01-09T22:24:11.297Z,0.00
2019-01-09T22:26:40.497Z,0.00
2019-01-09T22:29:09.697Z,0.00
2019-01-09T22:31:39.105Z,0.00
2019-01-09T22:34:08.301Z,0.00
2019-01-09T22:36:37.645Z,0.00
2019-01-09T22:39:08.498Z,0.00
2019-01-09T22:41:38.719Z,0.00
2019-01-09T22:44:07.921Z,0.00
2019-01-09T22:46:37.154Z,0.00
2019-01-09T22:49:06.318Z,0.00
2019-01-09T22:51:35.984Z,0.00
2019-01-09T22:54:05.389Z,0.00
2019-01-09T22:56:37.015Z,0.00
2019-01-09T22:59:06.295Z,0.00
2019-01-09T23:01:55.793Z,0.00
2019-01-09T23:04:25.398Z,0.00
2019-01-09T23:06:54.883Z,0.00
2019-01-09T23:09:24.492Z,-0.10
2019-01-09T23:11:53.696Z,-0.10
2019-01-09T23:14:24.223Z,-0.10
2019-01-09T23:16:54.089Z,-0.10
2019-01-09T23:19:23.303Z,-0.10
2019-01-09T23:21:52.642Z,-0.10
2019-01-09T23:24:22.759Z,0.00
2019-01-09T23:26:52.044Z,-0.10
2019-01-09T23:29:23.496Z,-0.10
2019-01-09T23:31:52.882Z,-0.10
2019-01-09T23:34:23.064Z,-0.10
2019-01-09T23:36:52.618Z,-0.10
2019-01-09T23:39:21.844Z,-0.10
2019-01-09T23:41:51.038Z,-0.10
2019-01-09T23:44:20.332Z,0.00
2019-01-09T23:46:49.503Z,-0.10
2019-01-09T23:49:18.722Z,-0.10
2019-01-09T23:51:47.893Z,-0.10
2019-01-09T23:54:17.100Z,-0.10
2019-01-09T23:56:46.368Z,0.00
2019-01-09T23:59:15.552Z,0.00
